LPAZ/SMA METAR and TAF weather

Enter ICAO airport designator
Station Type Date Time Source
LPAZ METAR 2023/02/06 19:00 UTC NOAA

LPAZ 061900Z 14004KT 9999 FEW004 BKN010 13/13 Q1031


Station Type Date Time Source
LPAZ Decoded METAR 2023/02/06 19:00 UTC NOAA

Santa Maria Acores , Portugal (LPAZ) 36-58N 025-10W 100M
Feb 06, 2023 - 02:00 PM EST / 2023.02.06 1900 UTC
Wind: from the SE (140 degrees) at 5 MPH (4 KT):0
Visibility: greater than 7 mile(s):0
Sky conditions: mostly cloudy
Temperature: 55 F (13 C)
Dew Point: 55 F (13 C)
Relative Humidity: 100%
Pressure (altimeter): 30.45 in. Hg (1031 hPa)
ob: LPAZ 061900Z 14004KT 9999 FEW004 BKN010 13/13 Q1031
cycle: 19

Station Type Date Time Source
LPAZ TAF 2023/02/06 18:18 UTC NOAA

TAF TAF LPAZ 061700Z 0618/0724 VRB05KT 9999 SCT012 BKN030
TEMPO 0618/0706 3000 RADZ BR SCT003 BKN006
BECMG 0704/0706 03018KT PROB30
TEMPO 0706/0724 03023G35KT 8000 SHRA BKN015

Example: see airport list